WetterOnline ( http://www.wetteronline.de )

Wetter aktuell Oy-Mittelberg

Aktuelles Wetter: Kempten (705m)

6-stündlich | Neueste Meldungen
Ortszeit Temperatur Wetter
Sa, 19.01. 1:00 -7.8° C bedeckt
Fr, 18.01. 19:00 -5.8° C bedeckt
Fr, 18.01. 13:00 0.2° C leicht bewölkt
Fr, 18.01. 7:00 -2.3° C bedeckt
Fr, 18.01. 1:00 0.9° C leicht bewölkt
Do, 17.01. 19:00 1.9° C leichter Schneeregen
Do, 17.01. 13:00 5.9° C bewölkt
Do, 17.01. 7:00 4.2° C fast wolkenlos
Ortszeit Temperatur Wetter
Sa, 19.01. 4:30 -11.6° C bedeckt
Sa, 19.01. 4:20 -11.6° C bedeckt
Sa, 19.01. 4:10 -11.3° C bedeckt
Sa, 19.01. 4:00 -11.0° C bewölkt
Sa, 19.01. 3:50 -11.0° C bewölkt
Sa, 19.01. 3:40 -10.6° C leicht bewölkt
Sa, 19.01. 3:30 -10.4° C wolkig
Sa, 19.01. 3:00 -9.9° C wolkig
Sa, 19.01. 2:30 -10.4° C bedeckt
Sa, 19.01. 2:00 -10.0° C bewölkt
Sa, 19.01. 1:30 -8.7° C bewölkt
Ortszeit Relative Feuchte Sichtweite
Sa, 19.01. 1:00 91% 14 km
Fr, 18.01. 19:00 79% 22 km
Fr, 18.01. 13:00 50% 2.9 km
Fr, 18.01. 7:00 74% 27 km
Fr, 18.01. 1:00 75% 60 km
Do, 17.01. 19:00 86% 17 km
Do, 17.01. 13:00 62% 6 km
Do, 17.01. 7:00 65% 40 km
Ortszeit Relative Feuchte Sichtweite
Sa, 19.01. 4:30 89% 16 km
Sa, 19.01. 4:20 89% -
Sa, 19.01. 4:10 89% -
Sa, 19.01. 4:00 88% 16 km
Sa, 19.01. 3:50 88% -
Sa, 19.01. 3:40 89% -
Sa, 19.01. 3:30 89% 14 km
Sa, 19.01. 3:00 91% 16 km
Sa, 19.01. 2:30 91% 11 km
Sa, 19.01. 2:00 90% 12 km
Sa, 19.01. 1:30 90% 14 km
Ortszeit Niederschlagsmenge Niederschlagsart
Sa, 19.01. 1:00 0.0 l/m2 in 6 Std. -
Fr, 18.01. 19:00 0.0 l/m2 in 12 Std. -
Fr, 18.01. 13:00 0.0 l/m2 in 6 Std. -
Fr, 18.01. 7:00 2 l/m2 in 12 Std. Schnee, Niederschlag
Fr, 18.01. 1:00 0.5 l/m2 in 6 Std. Schnee, Regen
Do, 17.01. 19:00 1 l/m2 in 12 Std. Schnee, Regen
Do, 17.01. 13:00 0.0 l/m2 in 6 Std. -
Do, 17.01. 7:00 0.0 l/m2 in 12 Std. -
Ortszeit Niederschlagsmenge Niederschlagsart
Sa, 19.01. 4:30 0.0 l/m2 in 1 Std. -
Sa, 19.01. 4:20 keine Meldung -
Sa, 19.01. 4:10 keine Meldung -
Sa, 19.01. 4:00 0.0 l/m2 in 1 Std. -
Sa, 19.01. 3:50 keine Meldung -
Sa, 19.01. 3:40 keine Meldung -
Sa, 19.01. 3:30 0.0 l/m2 in 1 Std. -
Sa, 19.01. 3:00 0.0 l/m2 in 1 Std. -
Sa, 19.01. 2:30 0.0 l/m2 in 1 Std. -
Sa, 19.01. 2:00 0.0 l/m2 in 1 Std. -
Sa, 19.01. 1:30 0.0 l/m2 in 1 Std. -
Ortszeit Stärke Spitze Richtung
km/h Bft. km/h Grad Sektor
Sa, 19.01. 1:00 0 0 18 - -
Fr, 18.01. 19:00 4 1 11 20° N
Fr, 18.01. 13:00 7 2 18 140° SO
Fr, 18.01. 7:00 7 2 32 280° W
Fr, 18.01. 1:00 15 3 44 240° SW
Do, 17.01. 19:00 11 2 47 220° SW
Do, 17.01. 13:00 18 3 36 270° W
Do, 17.01. 7:00 9 2 52 230° SW
Ortszeit Stärke Spitze Richtung
km/h Bft. km/h Grad Sektor
Sa, 19.01. 4:30 7 2 11 110° O
Sa, 19.01. 4:20 7 2 - 110° O
Sa, 19.01. 4:10 7 2 - 110° O
Sa, 19.01. 4:00 7 2 11 110° O
Sa, 19.01. 3:50 7 2 - 110° O
Sa, 19.01. 3:40 6 1 - 120° SO
Sa, 19.01. 3:30 4 1 11 110° O
Sa, 19.01. 3:00 6 1 9 120° SO
Sa, 19.01. 2:30 4 1 7 130° SO
Sa, 19.01. 2:00 4 1 7 140° SO
Sa, 19.01. 1:30 4 1 4 110° O
Ortszeit Untergrenze Bedeckung Gattung
total tief tief mittel hoch
Sa, 19.01. 1:00 3900 m 8/8 8/8 - - -
Fr, 18.01. 19:00 5400 m 8/8 8/8 - - -
Fr, 18.01. 13:00 1500 m 3/8 3/8 - - -
Fr, 18.01. 7:00 810 m 8/8 8/8 - - -
Fr, 18.01. 1:00 750 m 5/8 3/8 - - -
Do, 17.01. 19:00 570 m 7/8 7/8 - - -
Do, 17.01. 13:00 2100 m 7/8 7/8 - - -
Do, 17.01. 7:00 7200 m 1/8 0/8 - - -
Ortszeit Bedeckungsgrad in Achtel und Wolkenuntergrenze
Sa, 19.01. 4:30 8(3900m) 8(5100m) 8(5700m)
Sa, 19.01. 4:20 8(3900m) 8(5100m) 8(5700m)
Sa, 19.01. 4:10 8(3900m) 8(5100m) 8(5700m)
Sa, 19.01. 4:00 5(3900m) 5(5100m) 7(6900m)
Sa, 19.01. 3:50 5(3900m) 5(5100m) 7(6900m)
Sa, 19.01. 3:40 2(3900m) 3(4500m) 5(7200m)
Sa, 19.01. 3:30 5(3900m) 6(4500m) 5(7200m)
Sa, 19.01. 3:00 1(390m) 7(3900m) 8(4800m)
Sa, 19.01. 2:30 6(4500m) 7(4800m) 8(5700m)
Sa, 19.01. 2:00 7(5700m)
Sa, 19.01. 1:30 5(3900m) 7(5400m)
Ortszeit Luftdruck NN (hPa) Tendenz (hPa in 3 Std.)
Sa, 19.01. 1:00 1020 - 1,0
Fr, 18.01. 19:00 1022 - 0,5
Fr, 18.01. 13:00 1020 - 0,7
Fr, 18.01. 7:00 1020 + 2,2
Fr, 18.01. 1:00 1015 + 0,9
Do, 17.01. 19:00 1012 + 1,4
Do, 17.01. 13:00 1008 - 0,9
Do, 17.01. 7:00 1011 - 0,7
Ortszeit Luftdruck NN (hPa) Tendenz (hPa in 3 Std.)
Sa, 19.01. 4:30 1022 0,0
Sa, 19.01. 4:20 1022 keine Meldung
Sa, 19.01. 4:10 1022 keine Meldung
Sa, 19.01. 4:00 1022 0,0
Sa, 19.01. 3:50 1022 keine Meldung
Sa, 19.01. 3:40 1021 keine Meldung
Sa, 19.01. 3:30 1021 - 0,1
Sa, 19.01. 3:00 1021 - 0,3
Sa, 19.01. 2:30 1021 - 0,6
Sa, 19.01. 2:00 1021 - 0,7
Sa, 19.01. 1:30 1020 - 1,0
Ortszeit Schneehöhe (cm)
Sa, 19.01. 1:00 24
Fr, 18.01. 19:00 24
Fr, 18.01. 13:00 25
Fr, 18.01. 7:00 26
Fr, 18.01. 1:00 23
Do, 17.01. 19:00 23
Do, 17.01. 13:00 24
Do, 17.01. 7:00 25
Ortszeit Schneehöhe (cm)
Sa, 19.01. 4:30 24
Sa, 19.01. 4:20 24
Sa, 19.01. 4:10 24
Sa, 19.01. 4:00 24
Sa, 19.01. 3:50 24
Sa, 19.01. 3:40 24
Sa, 19.01. 3:30 24
Sa, 19.01. 3:00 24
Sa, 19.01. 2:30 24
Sa, 19.01. 2:00 24
Sa, 19.01. 1:30 24
Link zu dieser Seite / Seite empfehlen

Das Wetter in ...